Hlavní strana
METAR-TAF:

METAR-TAF

Letiště :

Wagga Wagga, Austrálie

zeměpisná šířka: 35-09S, zeměpisná délka: 147-27E, výška: 221 m

Aktuální stav počasí

Zpráva byla vytvořena před 31 minutami, v 13:00 UTC
Východní vítr 13 kt
Teplota 16°C
Vlhkost vzduchu 68%
Tlak 1023 hPa
Viditelnost 10 km a více

METAR: YSWG 081300Z AUTO 09013KT 9999 // NCD 16/10 Q1023

Čas: 23:31 (13:31 UTC)


TAF: chybějící

Stav a předpovědi počasí z více než 4 000 letišť (zprávy METAR a TAF).

Červené a žluté tečky na mapě představují dostupné meteorologické stanice.

Když kurzor umístíte na tečku, zobrazí se název stanice.

Pak kliknutím zobrazíte stav a předpověď počasí.

Chcete-li změnit mapu, kliknutím na zelené tlačítko se znaménkem +mapu přiblížíte, kliknutím na zelené tlačítko se znaménkem – mapu oddálíte a kliknutím na zelené šipky přejdete na sousední mapy.


METAR-TAF: